sensor_id;sensor_type;location;lat;lon;timestamp;P1;durP1;ratioP1;P2;durP2;ratioP2
18623;SDS011;9441;51.420;7.036;2023-07-09T00:00:47;12.25;;;4.57;;
18623;SDS011;9441;51.420;7.036;2023-07-09T00:01:49;10.40;;;4.72;;
18623;SDS011;9441;51.420;7.036;2023-07-09T00:02:53;7.57;;;4.63;;
18623;SDS011;9441;51.420;7.036;2023-07-09T00:03:54;8.15;;;4.38;;
18623;SDS011;9441;51.420;7.036;2023-07-09T00:04:56;11.32;;;4.53;;
18623;SDS011;9441;51.420;7.036;2023-07-09T00:05:57;9.68;;;4.75;;
18623;SDS011;9441;51.420;7.036;2023-07-09T00:07:00;10.90;;;4.97;;
18623;SDS011;9441;51.420;7.036;2023-07-09T00:08:02;10.77;;;4.55;;
18623;SDS011;9441;51.420;7.036;2023-07-09T00:09:05;13.43;;;5.03;;
18623;SDS011;9441;51.420;7.036;2023-07-09T00:10:12;8.70;;;4.32;;
18623;SDS011;9441;51.420;7.036;2023-07-09T00:11:16;12.13;;;4.65;;
18623;SDS011;9441;51.420;7.036;2023-07-09T00:12:17;8.50;;;4.75;;
18623;SDS011;9441;51.420;7.036;2023-07-09T00:13:20;9.52;;;5.07;;
18623;SDS011;9441;51.420;7.036;2023-07-09T00:14:21;10.18;;;4.90;;
18623;SDS011;9441;51.420;7.036;2023-07-09T00:15:24;8.55;;;4.53;;
18623;SDS011;9441;51.420;7.036;2023-07-09T00:16:26;10.88;;;4.88;;
18623;SDS011;9441;51.420;7.036;2023-07-09T00:17:31;11.32;;;5.50;;
18623;SDS011;9441;51.420;7.036;2023-07-09T00:18:35;9.85;;;4.95;;
18623;SDS011;9441;51.420;7.036;2023-07-09T00:19:38;12.65;;;5.13;;
18623;SDS011;9441;51.420;7.036;2023-07-09T00:20:39;11.23;;;4.70;;
18623;SDS011;9441;51.420;7.036;2023-07-09T00:21:44;8.27;;;4.50;;
18623;SDS011;9441;51.420;7.036;2023-07-09T00:22:45;10.25;;;4.80;;
18623;SDS011;9441;51.420;7.036;2023-07-09T00:23:52;9.25;;;4.55;;
18623;SDS011;9441;51.420;7.036;2023-07-09T00:24:53;9.32;;;4.82;;
18623;SDS011;9441;51.420;7.036;2023-07-09T00:25:57;13.40;;;5.30;;
18623;SDS011;9441;51.420;7.036;2023-07-09T00:26:58;7.78;;;4.68;;
18623;SDS011;9441;51.420;7.036;2023-07-09T00:28:00;7.70;;;4.70;;
18623;SDS011;9441;51.420;7.036;2023-07-09T00:29:02;10.63;;;4.57;;
18623;SDS011;9441;51.420;7.036;2023-07-09T00:30:05;8.55;;;4.85;;
18623;SDS011;9441;51.420;7.036;2023-07-09T00:31:07;10.43;;;4.85;;
18623;SDS011;9441;51.420;7.036;2023-07-09T00:32:12;15.02;;;4.88;;
18623;SDS011;9441;51.420;7.036;2023-07-09T00:33:16;9.82;;;4.80;;
18623;SDS011;9441;51.420;7.036;2023-07-09T00:34:21;13.18;;;4.65;;
18623;SDS011;9441;51.420;7.036;2023-07-09T00:35:25;16.92;;;4.90;;
18623;SDS011;9441;51.420;7.036;2023-07-09T00:36:28;13.02;;;4.43;;
18623;SDS011;9441;51.420;7.036;2023-07-09T00:37:31;7.05;;;5.00;;
18623;SDS011;9441;51.420;7.036;2023-07-09T00:38:33;11.00;;;4.70;;
18623;SDS011;9441;51.420;7.036;2023-07-09T00:39:39;9.35;;;4.47;;
18623;SDS011;9441;51.420;7.036;2023-07-09T00:40:46;8.00;;;4.72;;
18623;SDS011;9441;51.420;7.036;2023-07-09T00:41:49;15.70;;;5.38;;
18623;SDS011;9441;51.420;7.036;2023-07-09T00:42:52;9.20;;;4.78;;
18623;SDS011;9441;51.420;7.036;2023-07-09T00:43:54;10.48;;;4.70;;
18623;SDS011;9441;51.420;7.036;2023-07-09T00:44:56;9.75;;;4.60;;
18623;SDS011;9441;51.420;7.036;2023-07-09T00:46:10;9.15;;;5.20;;
18623;SDS011;9441;51.420;7.036;2023-07-09T00:47:18;11.70;;;5.00;;
18623;SDS011;9441;51.420;7.036;2023-07-09T00:48:19;8.75;;;4.72;;
18623;SDS011;9441;51.420;7.036;2023-07-09T00:49:28;10.02;;;5.00;;
18623;SDS011;9441;51.420;7.036;2023-07-09T00:50:32;7.40;;;4.85;;
18623;SDS011;9441;51.420;7.036;2023-07-09T00:51:36;9.13;;;4.97;;
18623;SDS011;9441;51.420;7.036;2023-07-09T00:52:44;10.07;;;4.68;;
18623;SDS011;9441;51.420;7.036;2023-07-09T00:53:48;10.52;;;4.90;;
18623;SDS011;9441;51.420;7.036;2023-07-09T00:54:50;13.13;;;4.80;;
18623;SDS011;9441;51.420;7.036;2023-07-09T00:55:54;7.57;;;4.75;;
18623;SDS011;9441;51.420;7.036;2023-07-09T00:56:57;7.30;;;4.75;;
18623;SDS011;9441;51.420;7.036;2023-07-09T00:58:01;11.82;;;4.97;;
18623;SDS011;9441;51.420;7.036;2023-07-09T00:59:04;9.80;;;5.07;;
18623;SDS011;9441;51.420;7.036;2023-07-09T01:00:10;13.02;;;4.90;;
18623;SDS011;9441;51.420;7.036;2023-07-09T01:01:16;8.68;;;5.30;;
18623;SDS011;9441;51.420;7.036;2023-07-09T01:02:20;10.18;;;4.78;;
18623;SDS011;9441;51.420;7.036;2023-07-09T01:03:25;9.43;;;5.38;;
18623;SDS011;9441;51.420;7.036;2023-07-09T01:04:31;6.35;;;4.88;;
18623;SDS011;9441;51.420;7.036;2023-07-09T01:05:33;11.57;;;4.97;;
18623;SDS011;9441;51.420;7.036;2023-07-09T01:06:35;8.23;;;4.80;;
18623;SDS011;9441;51.420;7.036;2023-07-09T01:07:38;9.93;;;4.97;;
18623;SDS011;9441;51.420;7.036;2023-07-09T01:08:40;11.73;;;4.72;;
18623;SDS011;9441;51.420;7.036;2023-07-09T01:09:42;10.50;;;4.78;;
18623;SDS011;9441;51.420;7.036;2023-07-09T01:10:44;8.48;;;4.90;;
18623;SDS011;9441;51.420;7.036;2023-07-09T01:11:46;10.95;;;5.10;;
18623;SDS011;9441;51.420;7.036;2023-07-09T01:12:48;8.63;;;5.43;;
18623;SDS011;9441;51.420;7.036;2023-07-09T01:13:52;9.90;;;4.90;;
18623;SDS011;9441;51.420;7.036;2023-07-09T01:14:54;11.50;;;5.13;;
18623;SDS011;9441;51.420;7.036;2023-07-09T01:16:00;12.70;;;5.32;;
18623;SDS011;9441;51.420;7.036;2023-07-09T01:17:02;11.48;;;5.13;;
18623;SDS011;9441;51.420;7.036;2023-07-09T01:18:05;9.85;;;4.50;;
18623;SDS011;9441;51.420;7.036;2023-07-09T01:19:07;10.93;;;5.05;;
18623;SDS011;9441;51.420;7.036;2023-07-09T01:20:15;11.73;;;5.03;;
18623;SDS011;9441;51.420;7.036;2023-07-09T01:21:21;13.38;;;4.75;;
18623;SDS011;9441;51.420;7.036;2023-07-09T01:22:24;10.38;;;5.07;;
18623;SDS011;9441;51.420;7.036;2023-07-09T01:23:25;10.98;;;4.85;;
18623;SDS011;9441;51.420;7.036;2023-07-09T01:24:47;13.15;;;5.25;;
18623;SDS011;9441;51.420;7.036;2023-07-09T01:25:51;9.77;;;5.10;;
18623;SDS011;9441;51.420;7.036;2023-07-09T01:26:54;14.82;;;5.25;;
18623;SDS011;9441;51.420;7.036;2023-07-09T01:27:56;10.05;;;4.93;;
18623;SDS011;9441;51.420;7.036;2023-07-09T01:28:59;13.32;;;4.93;;
18623;SDS011;9441;51.420;7.036;2023-07-09T01:30:02;11.65;;;4.93;;
18623;SDS011;9441;51.420;7.036;2023-07-09T01:31:04;15.25;;;4.95;;
18623;SDS011;9441;51.420;7.036;2023-07-09T01:32:06;13.80;;;5.30;;
18623;SDS011;9441;51.420;7.036;2023-07-09T01:33:10;8.80;;;4.72;;
18623;SDS011;9441;51.420;7.036;2023-07-09T01:34:11;11.43;;;4.82;;
18623;SDS011;9441;51.420;7.036;2023-07-09T01:35:17;10.55;;;5.28;;
18623;SDS011;9441;51.420;7.036;2023-07-09T01:36:19;10.68;;;5.28;;
18623;SDS011;9441;51.420;7.036;2023-07-09T01:37:26;10.38;;;4.97;;
18623;SDS011;9441;51.420;7.036;2023-07-09T01:38:27;11.38;;;5.22;;
18623;SDS011;9441;51.420;7.036;2023-07-09T01:39:30;8.48;;;4.93;;
18623;SDS011;9441;51.420;7.036;2023-07-09T01:40:33;13.27;;;5.05;;
18623;SDS011;9441;51.420;7.036;2023-07-09T01:41:36;13.40;;;5.60;;
18623;SDS011;9441;51.420;7.036;2023-07-09T01:42:37;14.02;;;5.03;;
18623;SDS011;9441;51.420;7.036;2023-07-09T01:43:40;10.77;;;4.93;;
18623;SDS011;9441;51.420;7.036;2023-07-09T01:44:43;11.25;;;5.63;;
18623;SDS011;9441;51.420;7.036;2023-07-09T01:45:45;14.60;;;5.57;;
18623;SDS011;9441;51.420;7.036;2023-07-09T01:46:50;12.00;;;5.07;;
18623;SDS011;9441;51.420;7.036;2023-07-09T01:47:51;9.90;;;5.38;;
18623;SDS011;9441;51.420;7.036;2023-07-09T01:48:55;15.18;;;5.60;;
18623;SDS011;9441;51.420;7.036;2023-07-09T01:49:56;8.23;;;5.10;;
18623;SDS011;9441;51.420;7.036;2023-07-09T01:50:58;10.95;;;5.68;;
18623;SDS011;9441;51.420;7.036;2023-07-09T01:52:03;10.40;;;5.57;;
18623;SDS011;9441;51.420;7.036;2023-07-09T01:53:06;7.70;;;4.95;;
18623;SDS011;9441;51.420;7.036;2023-07-09T01:54:08;16.58;;;5.47;;
18623;SDS011;9441;51.420;7.036;2023-07-09T01:55:10;8.60;;;5.07;;
18623;SDS011;9441;51.420;7.036;2023-07-09T01:56:13;14.77;;;5.18;;
18623;SDS011;9441;51.420;7.036;2023-07-09T01:57:16;11.98;;;4.70;;
18623;SDS011;9441;51.420;7.036;2023-07-09T01:58:19;13.43;;;5.07;;
18623;SDS011;9441;51.420;7.036;2023-07-09T01:59:25;14.55;;;5.40;;
18623;SDS011;9441;51.420;7.036;2023-07-09T02:00:27;15.90;;;5.10;;
18623;SDS011;9441;51.420;7.036;2023-07-09T02:01:29;9.77;;;5.55;;
18623;SDS011;9441;51.420;7.036;2023-07-09T02:02:36;10.45;;;5.10;;
18623;SDS011;9441;51.420;7.036;2023-07-09T02:03:39;11.18;;;5.40;;
18623;SDS011;9441;51.420;7.036;2023-07-09T02:04:41;14.35;;;5.65;;
18623;SDS011;9441;51.420;7.036;2023-07-09T02:05:43;12.98;;;5.38;;
18623;SDS011;9441;51.420;7.036;2023-07-09T02:06:46;12.85;;;5.10;;
18623;SDS011;9441;51.420;7.036;2023-07-09T02:07:47;11.30;;;4.80;;
18623;SDS011;9441;51.420;7.036;2023-07-09T02:08:51;8.13;;;4.72;;
18623;SDS011;9441;51.420;7.036;2023-07-09T02:09:52;12.95;;;5.45;;
18623;SDS011;9441;51.420;7.036;2023-07-09T02:10:55;16.08;;;5.38;;
18623;SDS011;9441;51.420;7.036;2023-07-09T02:11:56;11.60;;;5.50;;
18623;SDS011;9441;51.420;7.036;2023-07-09T02:12:58;12.10;;;5.43;;
18623;SDS011;9441;51.420;7.036;2023-07-09T02:14:00;12.38;;;5.55;;
18623;SDS011;9441;51.420;7.036;2023-07-09T02:15:02;11.55;;;5.35;;
18623;SDS011;9441;51.420;7.036;2023-07-09T02:16:05;11.73;;;5.07;;
18623;SDS011;9441;51.420;7.036;2023-07-09T02:17:07;8.82;;;5.53;;
18623;SDS011;9441;51.420;7.036;2023-07-09T02:18:09;11.25;;;5.45;;
18623;SDS011;9441;51.420;7.036;2023-07-09T02:19:11;9.65;;;5.78;;
18623;SDS011;9441;51.420;7.036;2023-07-09T02:20:13;13.80;;;5.43;;
18623;SDS011;9441;51.420;7.036;2023-07-09T02:21:15;8.38;;;5.03;;
18623;SDS011;9441;51.420;7.036;2023-07-09T02:22:17;11.52;;;5.78;;
18623;SDS011;9441;51.420;7.036;2023-07-09T02:23:19;14.10;;;5.63;;
18623;SDS011;9441;51.420;7.036;2023-07-09T02:24:23;9.45;;;5.53;;
18623;SDS011;9441;51.420;7.036;2023-07-09T02:25:25;11.90;;;5.82;;
18623;SDS011;9441;51.420;7.036;2023-07-09T02:26:27;10.40;;;5.57;;
18623;SDS011;9441;51.420;7.036;2023-07-09T02:27:29;11.32;;;5.93;;
18623;SDS011;9441;51.420;7.036;2023-07-09T02:28:31;13.38;;;5.75;;
18623;SDS011;9441;51.420;7.036;2023-07-09T02:29:34;11.30;;;5.93;;
18623;SDS011;9441;51.420;7.036;2023-07-09T02:30:36;18.60;;;5.75;;
18623;SDS011;9441;51.420;7.036;2023-07-09T02:31:38;13.40;;;6.22;;
18623;SDS011;9441;51.420;7.036;2023-07-09T02:32:41;10.15;;;5.43;;
18623;SDS011;9441;51.420;7.036;2023-07-09T02:33:43;13.23;;;5.90;;
18623;SDS011;9441;51.420;7.036;2023-07-09T02:34:45;17.98;;;5.88;;
18623;SDS011;9441;51.420;7.036;2023-07-09T02:35:49;12.05;;;5.65;;
18623;SDS011;9441;51.420;7.036;2023-07-09T02:36:50;13.60;;;5.75;;
18623;SDS011;9441;51.420;7.036;2023-07-09T02:37:52;13.95;;;5.57;;
18623;SDS011;9441;51.420;7.036;2023-07-09T02:38:53;13.45;;;6.00;;
18623;SDS011;9441;51.420;7.036;2023-07-09T02:39:57;9.05;;;5.57;;
18623;SDS011;9441;51.420;7.036;2023-07-09T02:40:58;10.77;;;6.03;;
18623;SDS011;9441;51.420;7.036;2023-07-09T02:42:01;11.05;;;5.55;;
18623;SDS011;9441;51.420;7.036;2023-07-09T02:43:02;11.00;;;5.38;;
18623;SDS011;9441;51.420;7.036;2023-07-09T02:44:05;12.57;;;5.78;;
18623;SDS011;9441;51.420;7.036;2023-07-09T02:45:07;11.70;;;5.80;;
18623;SDS011;9441;51.420;7.036;2023-07-09T02:46:08;12.40;;;5.70;;
18623;SDS011;9441;51.420;7.036;2023-07-09T02:47:11;10.70;;;5.10;;
18623;SDS011;9441;51.420;7.036;2023-07-09T02:48:13;11.48;;;5.38;;
18623;SDS011;9441;51.420;7.036;2023-07-09T02:49:16;14.40;;;5.70;;
18623;SDS011;9441;51.420;7.036;2023-07-09T02:50:17;9.05;;;5.55;;
18623;SDS011;9441;51.420;7.036;2023-07-09T02:51:20;15.88;;;6.05;;
18623;SDS011;9441;51.420;7.036;2023-07-09T02:52:21;9.43;;;5.40;;
18623;SDS011;9441;51.420;7.036;2023-07-09T02:53:22;11.57;;;5.35;;
18623;SDS011;9441;51.420;7.036;2023-07-09T02:54:25;10.95;;;5.47;;
18623;SDS011;9441;51.420;7.036;2023-07-09T02:55:28;14.02;;;5.80;;
18623;SDS011;9441;51.420;7.036;2023-07-09T02:56:31;11.35;;;5.28;;
18623;SDS011;9441;51.420;7.036;2023-07-09T02:57:32;9.05;;;5.85;;
18623;SDS011;9441;51.420;7.036;2023-07-09T02:58:34;9.20;;;5.53;;
18623;SDS011;9441;51.420;7.036;2023-07-09T02:59:36;14.13;;;6.00;;
18623;SDS011;9441;51.420;7.036;2023-07-09T03:00:38;11.70;;;5.93;;
18623;SDS011;9441;51.420;7.036;2023-07-09T03:01:39;10.88;;;5.60;;
18623;SDS011;9441;51.420;7.036;2023-07-09T03:02:41;11.63;;;5.45;;
18623;SDS011;9441;51.420;7.036;2023-07-09T03:03:43;16.38;;;6.03;;
18623;SDS011;9441;51.420;7.036;2023-07-09T03:04:45;17.42;;;5.90;;
18623;SDS011;9441;51.420;7.036;2023-07-09T03:05:47;13.10;;;6.00;;
18623;SDS011;9441;51.420;7.036;2023-07-09T03:06:48;13.07;;;5.80;;
18623;SDS011;9441;51.420;7.036;2023-07-09T03:07:51;11.55;;;5.80;;
18623;SDS011;9441;51.420;7.036;2023-07-09T03:08:52;10.40;;;5.95;;
18623;SDS011;9441;51.420;7.036;2023-07-09T03:09:54;11.05;;;5.55;;
18623;SDS011;9441;51.420;7.036;2023-07-09T03:10:57;10.98;;;6.03;;
18623;SDS011;9441;51.420;7.036;2023-07-09T03:12:00;10.85;;;5.60;;
18623;SDS011;9441;51.420;7.036;2023-07-09T03:13:01;10.57;;;5.30;;
18623;SDS011;9441;51.420;7.036;2023-07-09T03:14:04;11.38;;;5.95;;
18623;SDS011;9441;51.420;7.036;2023-07-09T03:15:05;11.52;;;5.68;;
18623;SDS011;9441;51.420;7.036;2023-07-09T03:16:08;13.82;;;5.95;;
18623;SDS011;9441;51.420;7.036;2023-07-09T03:17:09;13.20;;;5.45;;
18623;SDS011;9441;51.420;7.036;2023-07-09T03:18:11;10.75;;;6.03;;
18623;SDS011;9441;51.420;7.036;2023-07-09T03:19:13;13.38;;;5.80;;
18623;SDS011;9441;51.420;7.036;2023-07-09T03:20:15;14.70;;;5.43;;
18623;SDS011;9441;51.420;7.036;2023-07-09T03:21:16;12.73;;;6.03;;
18623;SDS011;9441;51.420;7.036;2023-07-09T03:22:19;14.75;;;5.85;;
18623;SDS011;9441;51.420;7.036;2023-07-09T03:23:20;14.23;;;6.53;;
18623;SDS011;9441;51.420;7.036;2023-07-09T03:24:23;12.18;;;5.60;;
18623;SDS011;9441;51.420;7.036;2023-07-09T03:25:24;14.02;;;5.95;;
18623;SDS011;9441;51.420;7.036;2023-07-09T03:26:28;9.55;;;5.72;;
18623;SDS011;9441;51.420;7.036;2023-07-09T03:27:29;11.80;;;5.72;;
18623;SDS011;9441;51.420;7.036;2023-07-09T03:28:32;13.15;;;6.05;;
18623;SDS011;9441;51.420;7.036;2023-07-09T03:29:33;14.43;;;6.03;;
18623;SDS011;9441;51.420;7.036;2023-07-09T03:30:35;14.98;;;6.65;;
18623;SDS011;9441;51.420;7.036;2023-07-09T03:31:37;12.85;;;6.15;;
18623;SDS011;9441;51.420;7.036;2023-07-09T03:32:38;12.23;;;5.80;;
18623;SDS011;9441;51.420;7.036;2023-07-09T03:33:40;12.48;;;5.90;;
18623;SDS011;9441;51.420;7.036;2023-07-09T03:34:42;16.35;;;6.55;;
18623;SDS011;9441;51.420;7.036;2023-07-09T03:35:44;9.05;;;6.07;;
18623;SDS011;9441;51.420;7.036;2023-07-09T03:36:45;12.95;;;5.78;;
18623;SDS011;9441;51.420;7.036;2023-07-09T03:37:48;18.27;;;5.85;;
18623;SDS011;9441;51.420;7.036;2023-07-09T03:38:49;14.27;;;6.10;;
18623;SDS011;9441;51.420;7.036;2023-07-09T03:39:51;16.40;;;6.25;;
18623;SDS011;9441;51.420;7.036;2023-07-09T03:40:53;9.10;;;5.55;;
18623;SDS011;9441;51.420;7.036;2023-07-09T03:41:57;19.67;;;6.40;;
18623;SDS011;9441;51.420;7.036;2023-07-09T03:42:58;12.25;;;6.03;;
18623;SDS011;9441;51.420;7.036;2023-07-09T03:44:01;11.15;;;6.13;;
18623;SDS011;9441;51.420;7.036;2023-07-09T03:45:03;11.27;;;6.32;;
18623;SDS011;9441;51.420;7.036;2023-07-09T03:46:05;9.00;;;5.65;;
18623;SDS011;9441;51.420;7.036;2023-07-09T03:47:07;11.05;;;5.82;;
18623;SDS011;9441;51.420;7.036;2023-07-09T03:48:09;9.13;;;5.53;;
18623;SDS011;9441;51.420;7.036;2023-07-09T03:49:10;25.02;;;6.57;;
18623;SDS011;9441;51.420;7.036;2023-07-09T03:50:13;13.57;;;6.35;;
18623;SDS011;9441;51.420;7.036;2023-07-09T03:51:14;10.85;;;6.20;;
18623;SDS011;9441;51.420;7.036;2023-07-09T03:52:16;12.18;;;5.80;;
18623;SDS011;9441;51.420;7.036;2023-07-09T03:53:18;13.68;;;6.07;;
18623;SDS011;9441;51.420;7.036;2023-07-09T03:54:20;10.60;;;5.82;;
18623;SDS011;9441;51.420;7.036;2023-07-09T03:55:21;15.07;;;5.85;;
18623;SDS011;9441;51.420;7.036;2023-07-09T03:56:26;10.65;;;5.90;;
18623;SDS011;9441;51.420;7.036;2023-07-09T03:57:29;11.82;;;5.47;;
18623;SDS011;9441;51.420;7.036;2023-07-09T03:58:31;10.90;;;5.72;;
18623;SDS011;9441;51.420;7.036;2023-07-09T03:59:33;11.63;;;6.20;;
18623;SDS011;9441;51.420;7.036;2023-07-09T04:00:35;11.38;;;6.18;;
18623;SDS011;9441;51.420;7.036;2023-07-09T04:01:36;11.25;;;5.63;;
18623;SDS011;9441;51.420;7.036;2023-07-09T04:02:39;10.48;;;5.88;;
18623;SDS011;9441;51.420;7.036;2023-07-09T04:03:40;12.93;;;6.28;;
18623;SDS011;9441;51.420;7.036;2023-07-09T04:04:43;12.55;;;6.28;;
18623;SDS011;9441;51.420;7.036;2023-07-09T04:05:44;10.68;;;5.25;;
18623;SDS011;9441;51.420;7.036;2023-07-09T04:06:47;11.52;;;5.82;;
18623;SDS011;9441;51.420;7.036;2023-07-09T04:07:48;11.45;;;6.20;;
18623;SDS011;9441;51.420;7.036;2023-07-09T04:08:50;10.68;;;5.85;;
18623;SDS011;9441;51.420;7.036;2023-07-09T04:09:52;13.98;;;6.43;;
18623;SDS011;9441;51.420;7.036;2023-07-09T04:10:54;12.68;;;6.15;;
18623;SDS011;9441;51.420;7.036;2023-07-09T04:11:56;10.88;;;6.00;;
18623;SDS011;9441;51.420;7.036;2023-07-09T04:13:02;13.90;;;5.80;;
18623;SDS011;9441;51.420;7.036;2023-07-09T04:14:04;10.07;;;5.47;;
18623;SDS011;9441;51.420;7.036;2023-07-09T04:15:07;16.80;;;5.95;;
18623;SDS011;9441;51.420;7.036;2023-07-09T04:16:09;12.77;;;5.88;;
18623;SDS011;9441;51.420;7.036;2023-07-09T04:17:12;14.95;;;6.30;;
18623;SDS011;9441;51.420;7.036;2023-07-09T04:18:13;17.15;;;6.40;;
18623;SDS011;9441;51.420;7.036;2023-07-09T04:19:15;20.77;;;6.55;;
18623;SDS011;9441;51.420;7.036;2023-07-09T04:20:17;13.93;;;5.95;;
18623;SDS011;9441;51.420;7.036;2023-07-09T04:21:20;11.27;;;5.88;;
18623;SDS011;9441;51.420;7.036;2023-07-09T04:22:21;12.77;;;6.05;;
18623;SDS011;9441;51.420;7.036;2023-07-09T04:23:23;9.23;;;5.82;;
18623;SDS011;9441;51.420;7.036;2023-07-09T04:24:24;11.70;;;6.18;;
18623;SDS011;9441;51.420;7.036;2023-07-09T04:25:27;17.20;;;6.20;;
18623;SDS011;9441;51.420;7.036;2023-07-09T04:26:28;17.10;;;6.63;;
18623;SDS011;9441;51.420;7.036;2023-07-09T04:27:31;12.52;;;6.30;;
18623;SDS011;9441;51.420;7.036;2023-07-09T04:28:33;14.45;;;5.72;;
18623;SDS011;9441;51.420;7.036;2023-07-09T04:29:36;13.90;;;5.55;;
18623;SDS011;9441;51.420;7.036;2023-07-09T04:30:38;10.43;;;5.82;;
18623;SDS011;9441;51.420;7.036;2023-07-09T04:31:41;10.48;;;6.13;;
18623;SDS011;9441;51.420;7.036;2023-07-09T04:32:42;12.73;;;6.20;;
18623;SDS011;9441;51.420;7.036;2023-07-09T04:33:46;10.52;;;5.90;;
18623;SDS011;9441;51.420;7.036;2023-07-09T04:34:47;17.73;;;6.35;;
18623;SDS011;9441;51.420;7.036;2023-07-09T04:35:50;12.20;;;5.65;;
18623;SDS011;9441;51.420;7.036;2023-07-09T04:36:51;10.82;;;6.20;;
18623;SDS011;9441;51.420;7.036;2023-07-09T04:37:53;11.85;;;5.93;;
18623;SDS011;9441;51.420;7.036;2023-07-09T04:38:54;10.38;;;6.60;;
18623;SDS011;9441;51.420;7.036;2023-07-09T04:39:57;14.88;;;6.20;;
18623;SDS011;9441;51.420;7.036;2023-07-09T04:40:58;10.60;;;6.32;;
18623;SDS011;9441;51.420;7.036;2023-07-09T04:42:00;12.82;;;5.72;;
18623;SDS011;9441;51.420;7.036;2023-07-09T04:43:02;15.25;;;5.63;;
18623;SDS011;9441;51.420;7.036;2023-07-09T04:44:06;13.18;;;6.43;;
18623;SDS011;9441;51.420;7.036;2023-07-09T04:45:07;14.48;;;6.32;;
18623;SDS011;9441;51.420;7.036;2023-07-09T04:46:10;11.82;;;6.45;;
18623;SDS011;9441;51.420;7.036;2023-07-09T04:47:11;11.30;;;6.63;;
18623;SDS011;9441;51.420;7.036;2023-07-09T04:48:14;9.68;;;6.03;;
18623;SDS011;9441;51.420;7.036;2023-07-09T04:49:16;17.05;;;6.10;;
18623;SDS011;9441;51.420;7.036;2023-07-09T04:50:18;13.23;;;6.13;;
18623;SDS011;9441;51.420;7.036;2023-07-09T04:51:19;12.43;;;6.15;;
18623;SDS011;9441;51.420;7.036;2023-07-09T04:52:22;9.82;;;6.10;;
18623;SDS011;9441;51.420;7.036;2023-07-09T04:53:23;11.82;;;6.15;;
18623;SDS011;9441;51.420;7.036;2023-07-09T04:54:26;9.65;;;6.13;;
18623;SDS011;9441;51.420;7.036;2023-07-09T04:55:27;13.80;;;6.43;;
18623;SDS011;9441;51.420;7.036;2023-07-09T04:56:30;9.30;;;6.53;;
18623;SDS011;9441;51.420;7.036;2023-07-09T04:57:31;14.15;;;6.30;;
18623;SDS011;9441;51.420;7.036;2023-07-09T04:58:33;13.77;;;6.60;;
18623;SDS011;9441;51.420;7.036;2023-07-09T04:59:36;17.02;;;6.63;;
18623;SDS011;9441;51.420;7.036;2023-07-09T05:00:38;8.40;;;6.20;;
18623;SDS011;9441;51.420;7.036;2023-07-09T05:01:39;12.60;;;6.35;;
18623;SDS011;9441;51.420;7.036;2023-07-09T05:02:42;11.63;;;5.97;;
18623;SDS011;9441;51.420;7.036;2023-07-09T05:03:43;17.08;;;6.22;;
18623;SDS011;9441;51.420;7.036;2023-07-09T05:04:45;16.27;;;6.50;;
18623;SDS011;9441;51.420;7.036;2023-07-09T05:05:47;12.20;;;5.95;;
18623;SDS011;9441;51.420;7.036;2023-07-09T05:06:49;13.02;;;6.35;;
18623;SDS011;9441;51.420;7.036;2023-07-09T05:07:51;13.88;;;6.47;;
18623;SDS011;9441;51.420;7.036;2023-07-09T05:08:53;12.10;;;6.53;;
18623;SDS011;9441;51.420;7.036;2023-07-09T05:09:54;11.18;;;6.13;;
18623;SDS011;9441;51.420;7.036;2023-07-09T05:10:57;12.38;;;6.25;;
18623;SDS011;9441;51.420;7.036;2023-07-09T05:11:59;10.70;;;5.93;;
18623;SDS011;9441;51.420;7.036;2023-07-09T05:13:01;12.80;;;6.43;;
18623;SDS011;9441;51.420;7.036;2023-07-09T05:14:03;12.85;;;6.45;;
18623;SDS011;9441;51.420;7.036;2023-07-09T05:15:07;12.70;;;6.03;;
18623;SDS011;9441;51.420;7.036;2023-07-09T05:16:08;14.07;;;6.15;;
18623;SDS011;9441;51.420;7.036;2023-07-09T05:17:11;12.52;;;6.38;;
18623;SDS011;9441;51.420;7.036;2023-07-09T05:18:13;11.25;;;6.20;;
18623;SDS011;9441;51.420;7.036;2023-07-09T05:19:16;15.88;;;6.57;;
18623;SDS011;9441;51.420;7.036;2023-07-09T05:20:17;10.50;;;6.63;;
18623;SDS011;9441;51.420;7.036;2023-07-09T05:21:19;11.25;;;5.80;;
18623;SDS011;9441;51.420;7.036;2023-07-09T05:22:20;15.25;;;6.70;;
18623;SDS011;9441;51.420;7.036;2023-07-09T05:23:23;12.38;;;5.95;;
18623;SDS011;9441;51.420;7.036;2023-07-09T05:24:25;19.13;;;6.45;;
18623;SDS011;9441;51.420;7.036;2023-07-09T05:25:27;15.77;;;6.57;;
18623;SDS011;9441;51.420;7.036;2023-07-09T05:26:28;10.45;;;6.53;;
18623;SDS011;9441;51.420;7.036;2023-07-09T05:27:30;14.45;;;6.60;;
18623;SDS011;9441;51.420;7.036;2023-07-09T05:28:32;15.20;;;6.70;;
18623;SDS011;9441;51.420;7.036;2023-07-09T05:29:34;11.13;;;6.43;;
18623;SDS011;9441;51.420;7.036;2023-07-09T05:30:37;12.70;;;6.38;;
18623;SDS011;9441;51.420;7.036;2023-07-09T05:31:42;9.73;;;5.78;;
18623;SDS011;9441;51.420;7.036;2023-07-09T05:32:44;13.40;;;6.70;;
18623;SDS011;9441;51.420;7.036;2023-07-09T05:33:46;15.27;;;6.38;;
18623;SDS011;9441;51.420;7.036;2023-07-09T05:34:47;13.77;;;6.55;;
18623;SDS011;9441;51.420;7.036;2023-07-09T05:35:50;14.70;;;6.63;;
18623;SDS011;9441;51.420;7.036;2023-07-09T05:36:51;11.32;;;6.63;;
18623;SDS011;9441;51.420;7.036;2023-07-09T05:37:54;11.45;;;6.20;;
18623;SDS011;9441;51.420;7.036;2023-07-09T05:38:55;13.85;;;6.80;;
18623;SDS011;9441;51.420;7.036;2023-07-09T05:39:58;11.70;;;6.30;;
18623;SDS011;9441;51.420;7.036;2023-07-09T05:40:59;16.77;;;6.65;;
18623;SDS011;9441;51.420;7.036;2023-07-09T05:42:03;12.82;;;7.15;;
18623;SDS011;9441;51.420;7.036;2023-07-09T05:43:04;12.70;;;6.57;;
18623;SDS011;9441;51.420;7.036;2023-07-09T05:44:07;10.93;;;6.53;;
18623;SDS011;9441;51.420;7.036;2023-07-09T05:45:09;10.77;;;6.28;;
18623;SDS011;9441;51.420;7.036;2023-07-09T05:46:13;9.40;;;5.97;;
18623;SDS011;9441;51.420;7.036;2023-07-09T05:47:14;10.57;;;6.30;;
18623;SDS011;9441;51.420;7.036;2023-07-09T05:48:17;13.80;;;6.82;;
18623;SDS011;9441;51.420;7.036;2023-07-09T05:49:18;13.73;;;6.68;;
18623;SDS011;9441;51.420;7.036;2023-07-09T05:50:21;12.38;;;6.25;;
18623;SDS011;9441;51.420;7.036;2023-07-09T05:51:22;13.93;;;6.88;;
18623;SDS011;9441;51.420;7.036;2023-07-09T05:52:27;11.05;;;6.82;;
18623;SDS011;9441;51.420;7.036;2023-07-09T05:53:29;11.30;;;6.55;;
18623;SDS011;9441;51.420;7.036;2023-07-09T05:54:33;13.65;;;6.53;;
18623;SDS011;9441;51.420;7.036;2023-07-09T05:55:34;11.23;;;6.65;;
18623;SDS011;9441;51.420;7.036;2023-07-09T05:56:37;13.90;;;6.07;;
18623;SDS011;9441;51.420;7.036;2023-07-09T05:57:38;10.15;;;6.47;;
18623;SDS011;9441;51.420;7.036;2023-07-09T05:58:41;14.90;;;6.60;;
18623;SDS011;9441;51.420;7.036;2023-07-09T05:59:42;11.63;;;6.25;;
18623;SDS011;9441;51.420;7.036;2023-07-09T06:00:44;10.93;;;6.13;;
18623;SDS011;9441;51.420;7.036;2023-07-09T06:01:47;11.18;;;6.18;;
18623;SDS011;9441;51.420;7.036;2023-07-09T06:02:49;9.73;;;6.05;;
18623;SDS011;9441;51.420;7.036;2023-07-09T06:03:50;10.88;;;6.53;;
18623;SDS011;9441;51.420;7.036;2023-07-09T06:04:53;12.35;;;6.70;;
18623;SDS011;9441;51.420;7.036;2023-07-09T06:05:55;13.60;;;6.57;;
18623;SDS011;9441;51.420;7.036;2023-07-09T06:06:57;10.80;;;6.10;;
18623;SDS011;9441;51.420;7.036;2023-07-09T06:07:59;10.90;;;6.43;;
18623;SDS011;9441;51.420;7.036;2023-07-09T06:09:01;11.38;;;6.32;;
18623;SDS011;9441;51.420;7.036;2023-07-09T06:10:03;11.95;;;6.55;;
18623;SDS011;9441;51.420;7.036;2023-07-09T06:11:05;13.98;;;6.40;;
18623;SDS011;9441;51.420;7.036;2023-07-09T06:12:08;10.00;;;5.78;;
18623;SDS011;9441;51.420;7.036;2023-07-09T06:13:09;12.70;;;6.32;;
18623;SDS011;9441;51.420;7.036;2023-07-09T06:14:12;10.60;;;6.70;;
18623;SDS011;9441;51.420;7.036;2023-07-09T06:15:13;15.50;;;6.50;;
18623;SDS011;9441;51.420;7.036;2023-07-09T06:16:16;12.68;;;6.50;;
18623;SDS011;9441;51.420;7.036;2023-07-09T06:17:18;15.63;;;6.30;;
18623;SDS011;9441;51.420;7.036;2023-07-09T06:18:21;14.35;;;6.70;;